createdAt,value
2023-03-10T00:00:47.010Z,11.88
2023-03-10T00:01:47.004Z,11.97
2023-03-10T00:02:47.121Z,11.79
2023-03-10T00:03:47.180Z,11.85
2023-03-10T00:04:47.009Z,11.75
2023-03-10T00:05:47.038Z,11.79
2023-03-10T00:06:46.940Z,11.79
2023-03-10T00:07:46.960Z,11.79
2023-03-10T00:08:46.913Z,11.72
2023-03-10T00:09:46.910Z,11.72
2023-03-10T00:10:47.091Z,11.63
2023-03-10T00:11:47.080Z,11.64
2023-03-10T00:13:46.850Z,11.57
2023-03-10T00:14:46.842Z,11.64
2023-03-10T00:15:46.863Z,11.62
2023-03-10T00:16:46.816Z,11.66
2023-03-10T00:18:46.807Z,11.64
2023-03-10T00:19:46.783Z,11.57
2023-03-10T00:20:46.767Z,11.60
2023-03-10T00:21:46.750Z,11.51
2023-03-10T00:22:46.741Z,11.63
2023-03-10T00:23:46.728Z,11.49
2023-03-10T00:25:46.704Z,11.51
2023-03-10T00:26:46.687Z,11.60
2023-03-10T00:27:46.679Z,11.62
2023-03-10T00:28:46.666Z,11.66
2023-03-10T00:29:46.657Z,11.56
2023-03-10T00:30:46.844Z,11.60
2023-03-10T00:31:46.642Z,11.59
2023-03-10T00:32:46.935Z,11.67
2023-03-10T00:33:46.607Z,11.67
2023-03-10T00:34:46.611Z,11.67
2023-03-10T00:35:46.591Z,11.72
2023-03-10T00:36:46.569Z,11.74
2023-03-10T00:37:46.560Z,11.75
2023-03-10T00:38:46.571Z,11.82
2023-03-10T00:39:46.534Z,11.74
2023-03-10T00:40:46.520Z,11.87
2023-03-10T00:41:46.709Z,11.90
2023-03-10T00:42:46.493Z,11.88
2023-03-10T00:43:46.487Z,12.04
2023-03-10T00:44:46.473Z,12.07
2023-03-10T00:45:46.458Z,12.08
2023-03-10T00:46:46.538Z,12.26
2023-03-10T00:47:46.437Z,12.19
2023-03-10T00:48:46.420Z,12.21
2023-03-10T00:49:46.419Z,12.23
2023-03-10T00:50:46.442Z,12.37
2023-03-10T00:51:46.389Z,12.40
2023-03-10T00:52:46.370Z,12.48
2023-03-10T00:53:46.361Z,12.58
2023-03-10T00:54:46.349Z,12.56
2023-03-10T00:55:46.337Z,12.61
2023-03-10T00:56:46.317Z,12.58
2023-03-10T00:57:46.309Z,12.58
2023-03-10T00:58:46.496Z,12.55
2023-03-10T00:59:50.355Z,12.46
2023-03-10T01:00:46.273Z,12.37
2023-03-10T01:01:46.324Z,12.43
2023-03-10T01:02:46.243Z,12.33
2023-03-10T01:03:46.237Z,12.52
2023-03-10T01:04:46.330Z,12.43
2023-03-10T01:05:46.266Z,12.40
2023-03-10T01:06:46.211Z,12.38
2023-03-10T01:07:46.186Z,12.41
2023-03-10T01:08:46.169Z,12.41
2023-03-10T01:09:46.161Z,12.31
2023-03-10T01:10:46.143Z,12.30
2023-03-10T01:11:46.135Z,12.46
2023-03-10T01:12:46.116Z,12.26
2023-03-10T01:13:46.110Z,12.29
2023-03-10T01:14:46.091Z,12.31
2023-03-10T01:15:46.122Z,12.21
2023-03-10T01:16:46.068Z,12.19
2023-03-10T01:17:46.066Z,12.16
2023-03-10T01:18:46.043Z,12.16
2023-03-10T01:19:46.038Z,12.21
2023-03-10T01:20:46.024Z,12.21
2023-03-10T01:21:46.008Z,12.13
2023-03-10T01:22:46.020Z,12.18
2023-03-10T01:23:45.985Z,12.08
2023-03-10T01:24:45.973Z,12.23
2023-03-10T01:25:45.961Z,12.26
2023-03-10T01:26:45.944Z,12.18
2023-03-10T01:27:45.933Z,12.33
2023-03-10T01:28:45.920Z,12.30
2023-03-10T01:29:45.917Z,12.31
2023-03-10T01:30:45.895Z,12.38
2023-03-10T01:32:45.909Z,12.30
2023-03-10T01:33:45.882Z,12.30
2023-03-10T01:34:45.844Z,12.21
2023-03-10T01:35:45.895Z,12.21
2023-03-10T01:36:45.816Z,12.16
2023-03-10T01:37:46.005Z,12.29
2023-03-10T01:38:45.807Z,12.36
2023-03-10T01:39:45.775Z,12.46
2023-03-10T01:40:45.764Z,12.43
2023-03-10T01:41:45.748Z,12.48
2023-03-10T01:42:45.744Z,12.36
2023-03-10T01:43:45.738Z,12.40
2023-03-10T01:44:45.710Z,12.41
2023-03-10T01:45:45.697Z,12.29
2023-03-10T01:46:45.806Z,12.31
2023-03-10T01:47:45.675Z,12.25
2023-03-10T01:48:45.663Z,12.26
2023-03-10T01:49:45.670Z,12.29
2023-03-10T01:50:45.654Z,12.26
2023-03-10T01:51:45.618Z,12.31
2023-03-10T01:52:45.608Z,12.40
2023-03-10T01:53:45.590Z,12.30
2023-03-10T01:54:45.663Z,12.31
2023-03-10T01:55:45.566Z,12.33
2023-03-10T01:56:45.556Z,12.34
2023-03-10T01:57:45.541Z,12.31
2023-03-10T01:58:45.529Z,12.26
2023-03-10T01:59:45.515Z,12.26
2023-03-10T02:00:45.540Z,12.29
2023-03-10T02:01:45.536Z,12.30
2023-03-10T02:02:45.475Z,12.34
2023-03-10T02:03:45.673Z,12.38
2023-03-10T02:04:45.452Z,12.33
2023-03-10T02:05:45.467Z,12.41
2023-03-10T02:06:45.626Z,12.26
2023-03-10T02:07:45.415Z,12.19
2023-03-10T02:08:45.400Z,12.33
2023-03-10T02:09:45.381Z,12.31
2023-03-10T02:10:45.399Z,12.25
2023-03-10T02:11:45.359Z,12.26
2023-03-10T02:12:45.360Z,12.21
2023-03-10T02:13:45.337Z,12.23
2023-03-10T02:14:45.326Z,12.12
2023-03-10T02:15:45.324Z,12.12
2023-03-10T02:16:45.365Z,12.07
2023-03-10T02:17:45.320Z,12.01
2023-03-10T02:18:45.294Z,12.04
2023-03-10T02:19:45.260Z,11.98
2023-03-10T02:20:45.259Z,11.96
2023-03-10T02:21:45.233Z,12.00
2023-03-10T02:22:45.230Z,11.93
2023-03-10T02:23:58.720Z,11.88
2023-03-10T02:24:45.197Z,11.84
2023-03-10T02:25:45.183Z,11.87
2023-03-10T02:26:45.191Z,11.81
2023-03-10T02:27:45.157Z,11.85
2023-03-10T02:28:45.146Z,11.78
2023-03-10T02:29:58.002Z,11.78
2023-03-10T02:30:45.121Z,11.81
2023-03-10T02:31:45.216Z,11.78
2023-03-10T02:32:45.188Z,11.78
2023-03-10T02:33:45.081Z,11.88
2023-03-10T02:34:45.071Z,12.07
2023-03-10T02:35:45.092Z,12.07
2023-03-10T02:36:45.044Z,12.12
2023-03-10T02:37:45.029Z,12.12
2023-03-10T02:38:45.023Z,12.07
2023-03-10T02:39:45.001Z,12.13
2023-03-10T02:40:44.996Z,12.21
2023-03-10T02:41:45.582Z,12.18
2023-03-10T02:42:44.992Z,12.12
2023-03-10T02:43:44.952Z,12.15
2023-03-10T02:44:44.952Z,12.16
2023-03-10T02:45:44.956Z,12.18
2023-03-10T02:46:44.917Z,11.97
2023-03-10T02:47:44.906Z,12.07
2023-03-10T02:48:44.893Z,11.98
2023-03-10T02:49:44.873Z,11.96
2023-03-10T02:50:44.863Z,11.98
2023-03-10T02:51:44.863Z,12.00
2023-03-10T02:52:44.841Z,12.00
2023-03-10T02:53:44.820Z,12.05
2023-03-10T02:54:44.811Z,12.03
2023-03-10T02:55:44.794Z,12.03
2023-03-10T02:56:44.787Z,11.98
2023-03-10T02:57:44.769Z,11.88
2023-03-10T02:58:44.778Z,11.88
2023-03-10T02:59:44.743Z,11.85
2023-03-10T03:00:44.763Z,11.88
2023-03-10T03:01:44.922Z,12.00
2023-03-10T03:02:44.707Z,12.01
2023-03-10T03:03:44.753Z,11.88
2023-03-10T03:04:44.684Z,11.88
2023-03-10T03:05:44.668Z,11.87
2023-03-10T03:06:44.858Z,11.78
2023-03-10T03:07:44.641Z,11.87
2023-03-10T03:08:44.633Z,11.93
2023-03-10T03:09:44.616Z,11.77
2023-03-10T03:10:44.605Z,11.81
2023-03-10T03:11:44.590Z,11.82
2023-03-10T03:12:44.583Z,11.85
2023-03-10T03:13:44.568Z,11.74
2023-03-10T03:14:44.639Z,11.81
2023-03-10T03:15:44.537Z,11.70
2023-03-10T03:16:44.617Z,11.72
2023-03-10T03:17:44.546Z,11.74
2023-03-10T03:18:44.498Z,11.77
2023-03-10T03:19:44.489Z,11.69
2023-03-10T03:20:44.504Z,11.63
2023-03-10T03:21:44.464Z,11.64
2023-03-10T03:22:44.450Z,11.46
2023-03-10T03:23:44.433Z,11.49
2023-03-10T03:24:44.425Z,11.42
2023-03-10T03:25:44.407Z,11.35
2023-03-10T03:26:44.398Z,11.35
2023-03-10T03:27:44.380Z,11.38
2023-03-10T03:28:44.371Z,11.38
2023-03-10T03:29:44.354Z,11.26
2023-03-10T03:30:44.434Z,11.24
2023-03-10T03:31:44.409Z,11.21
2023-03-10T03:32:44.373Z,11.26
2023-03-10T03:33:44.304Z,11.24
2023-03-10T03:34:44.295Z,11.27
2023-03-10T03:35:44.303Z,11.17
2023-03-10T03:36:44.276Z,11.26
2023-03-10T03:37:44.454Z,11.28
2023-03-10T03:38:44.243Z,11.30
2023-03-10T03:39:44.364Z,11.42
2023-03-10T03:40:44.215Z,11.35
2023-03-10T03:41:44.202Z,11.39
2023-03-10T03:42:44.191Z,11.35
2023-03-10T03:43:44.177Z,11.38
2023-03-10T03:44:44.168Z,11.31
2023-03-10T03:45:44.183Z,11.33
2023-03-10T03:46:44.166Z,11.31
2023-03-10T03:47:44.123Z,11.21
2023-03-10T03:48:44.111Z,11.30
2023-03-10T03:49:44.100Z,11.23
2023-03-10T03:50:44.088Z,11.28
2023-03-10T03:51:44.076Z,11.28
2023-03-10T03:52:44.065Z,11.33
2023-03-10T03:53:44.044Z,11.39
2023-03-10T03:54:44.032Z,11.24
2023-03-10T03:55:44.018Z,11.24
2023-03-10T03:56:44.006Z,11.31
2023-03-10T03:57:43.992Z,11.42
2023-03-10T03:58:43.982Z,11.38
2023-03-10T03:59:43.966Z,11.33
2023-03-10T04:00:43.955Z,11.36
2023-03-10T04:01:43.939Z,11.38
2023-03-10T04:02:44.014Z,11.23
2023-03-10T04:03:43.971Z,11.23
2023-03-10T04:04:43.904Z,11.26
2023-03-10T04:05:43.889Z,11.28
2023-03-10T04:06:43.877Z,11.28
2023-03-10T04:07:43.862Z,11.11
2023-03-10T04:08:43.850Z,11.08
2023-03-10T04:09:43.838Z,11.11
2023-03-10T04:10:43.828Z,10.95
2023-03-10T04:11:43.807Z,10.86
2023-03-10T04:12:43.800Z,10.87
2023-03-10T04:13:43.783Z,10.84
2023-03-10T04:14:43.777Z,10.90
2023-03-10T04:15:43.817Z,10.84
2023-03-10T04:16:43.746Z,10.98
2023-03-10T04:17:43.732Z,11.02
2023-03-10T04:18:43.738Z,11.06
2023-03-10T04:19:45.873Z,11.03
2023-03-10T04:20:43.694Z,11.24
2023-03-10T04:21:43.682Z,11.20
2023-03-10T04:22:43.670Z,11.09
2023-03-10T04:23:43.654Z,11.16
2023-03-10T04:24:43.644Z,11.05
2023-03-10T04:25:43.624Z,11.08
2023-03-10T04:26:43.616Z,11.16
2023-03-10T04:27:43.604Z,11.09
2023-03-10T04:28:43.589Z,11.19
2023-03-10T04:29:43.584Z,11.06
2023-03-10T04:30:43.568Z,11.11
2023-03-10T04:31:48.312Z,11.01
2023-03-10T04:32:43.664Z,11.03
2023-03-10T04:33:43.523Z,11.08
2023-03-10T04:34:43.529Z,11.06
2023-03-10T04:35:43.529Z,11.09
2023-03-10T04:36:43.487Z,11.03
2023-03-10T04:37:43.468Z,11.03
2023-03-10T04:38:43.461Z,11.12
2023-03-10T04:39:43.444Z,11.16
2023-03-10T04:40:43.434Z,11.20
2023-03-10T04:41:43.418Z,11.19
2023-03-10T04:42:43.406Z,11.21
2023-03-10T04:43:45.682Z,11.20
2023-03-10T04:44:43.378Z,11.17
2023-03-10T04:45:43.365Z,11.19
2023-03-10T04:46:43.496Z,11.21
2023-03-10T04:47:43.340Z,11.24
2023-03-10T04:48:43.332Z,11.11
2023-03-10T04:49:43.313Z,11.06
2023-03-10T04:50:43.435Z,11.08
2023-03-10T04:51:43.298Z,11.02
2023-03-10T04:52:43.275Z,11.11
2023-03-10T04:53:43.262Z,11.06
2023-03-10T04:54:43.248Z,10.93
2023-03-10T04:55:43.234Z,10.99
2023-03-10T04:56:43.216Z,10.94
2023-03-10T04:57:43.211Z,10.90
2023-03-10T04:58:43.195Z,10.88
2023-03-10T04:59:43.188Z,10.93
2023-03-10T05:00:56.501Z,10.87
2023-03-10T05:01:43.243Z,10.91
2023-03-10T05:02:43.152Z,10.93
2023-03-10T05:03:43.212Z,10.91
2023-03-10T05:05:43.166Z,10.94
2023-03-10T05:06:43.117Z,10.87
2023-03-10T05:07:43.091Z,11.01
2023-03-10T05:08:43.058Z,11.06
2023-03-10T05:09:43.043Z,11.08
2023-03-10T05:10:43.033Z,11.05
2023-03-10T05:11:43.027Z,11.12
2023-03-10T05:12:43.005Z,11.08
2023-03-10T05:13:42.995Z,11.08
2023-03-10T05:14:42.977Z,11.06
2023-03-10T05:15:43.070Z,11.17
2023-03-10T05:16:42.969Z,11.01
2023-03-10T05:17:42.962Z,11.08
2023-03-10T05:18:42.932Z,11.02
2023-03-10T05:19:42.908Z,10.99
2023-03-10T05:20:42.897Z,11.03
2023-03-10T05:21:42.880Z,11.02
2023-03-10T05:22:42.891Z,10.95
2023-03-10T05:23:42.855Z,10.90
2023-03-10T05:24:42.850Z,10.86
2023-03-10T05:25:42.832Z,10.81
2023-03-10T05:26:42.819Z,10.80
2023-03-10T05:27:42.807Z,10.73
2023-03-10T05:28:42.791Z,10.63
2023-03-10T05:29:42.776Z,10.68
2023-03-10T05:30:42.767Z,10.62
2023-03-10T05:31:42.859Z,10.72
2023-03-10T05:32:42.819Z,10.65
2023-03-10T05:33:42.721Z,10.54
2023-03-10T05:34:42.923Z,10.66
2023-03-10T05:35:42.781Z,10.65
2023-03-10T05:36:42.685Z,10.60
2023-03-10T05:37:42.673Z,10.65
2023-03-10T05:38:42.679Z,10.70
2023-03-10T05:39:42.642Z,10.68
2023-03-10T05:40:42.633Z,10.55
2023-03-10T05:41:42.617Z,10.65
2023-03-10T05:42:42.608Z,10.68
2023-03-10T05:43:42.593Z,10.58
2023-03-10T05:44:42.580Z,10.55
2023-03-10T05:45:42.565Z,10.51
2023-03-10T05:46:42.647Z,10.66
2023-03-10T05:47:42.542Z,10.66
2023-03-10T05:48:42.528Z,10.68
2023-03-10T05:49:42.514Z,10.83
2023-03-10T05:50:42.506Z,10.81
2023-03-10T05:51:42.485Z,10.93
2023-03-10T05:52:42.472Z,10.88
2023-03-10T05:53:42.466Z,10.87
2023-03-10T05:54:42.503Z,10.90
2023-03-10T05:55:42.467Z,10.91
2023-03-10T05:56:42.420Z,10.87
2023-03-10T05:57:42.413Z,10.90
2023-03-10T05:58:42.444Z,10.90
2023-03-10T05:59:42.376Z,10.90
2023-03-10T06:00:42.372Z,10.88
2023-03-10T06:01:42.356Z,10.91
2023-03-10T06:02:42.415Z,10.81
2023-03-10T06:03:42.475Z,10.84
2023-03-10T06:04:42.314Z,10.91
2023-03-10T06:05:42.298Z,10.84
2023-03-10T06:06:42.294Z,10.87
2023-03-10T06:07:42.272Z,10.88
2023-03-10T06:08:42.264Z,10.80
2023-03-10T06:09:42.448Z,10.87
2023-03-10T06:10:42.258Z,10.69
2023-03-10T06:11:42.219Z,10.66
2023-03-10T06:12:42.212Z,10.66
2023-03-10T06:13:42.209Z,10.78
2023-03-10T06:14:42.193Z,10.72
2023-03-10T06:15:42.165Z,10.73
2023-03-10T06:16:42.218Z,10.81
2023-03-10T06:17:42.141Z,10.78
2023-03-10T06:18:42.134Z,10.86
2023-03-10T06:19:42.121Z,10.98
2023-03-10T06:20:42.113Z,10.98
2023-03-10T06:21:42.088Z,11.06
2023-03-10T06:22:42.077Z,11.11
2023-03-10T06:23:42.087Z,11.09
2023-03-10T06:24:42.051Z,11.11
2023-03-10T06:25:42.045Z,10.99
2023-03-10T06:26:42.056Z,10.98
2023-03-10T06:27:42.012Z,10.94
2023-03-10T06:29:41.985Z,10.88
2023-03-10T06:30:41.977Z,10.88
2023-03-10T06:31:42.034Z,10.81
2023-03-10T06:32:42.028Z,10.66
2023-03-10T06:33:41.933Z,10.65
2023-03-10T06:34:41.924Z,10.69
2023-03-10T06:35:41.908Z,10.75
2023-03-10T06:36:41.901Z,10.76
2023-03-10T06:37:41.888Z,10.69
2023-03-10T06:38:41.865Z,10.90
2023-03-10T06:39:41.855Z,10.87
2023-03-10T06:40:41.839Z,10.98
2023-03-10T06:41:41.841Z,10.95
2023-03-10T06:42:41.899Z,11.08
2023-03-10T06:43:41.804Z,11.06
2023-03-10T06:44:41.786Z,11.09
2023-03-10T06:45:41.821Z,11.19
2023-03-10T06:46:41.762Z,11.17
2023-03-10T06:47:41.752Z,11.26
2023-03-10T06:48:41.733Z,11.03
2023-03-10T06:49:41.724Z,10.98
2023-03-10T06:50:41.707Z,10.88
2023-03-10T06:51:41.697Z,10.81
2023-03-10T06:52:41.681Z,10.81
2023-03-10T06:53:41.673Z,10.78
2023-03-10T06:54:41.655Z,10.87
2023-03-10T06:55:41.643Z,10.91
2023-03-10T06:56:41.625Z,10.86
2023-03-10T06:57:41.621Z,10.90
2023-03-10T06:58:41.617Z,10.90
2023-03-10T06:59:41.595Z,10.84
2023-03-10T07:00:41.578Z,10.78
2023-03-10T07:01:41.562Z,10.84
2023-03-10T07:02:41.555Z,10.66
2023-03-10T07:03:43.729Z,10.65
2023-03-10T07:04:41.584Z,10.63
2023-03-10T07:05:41.511Z,10.52
2023-03-10T07:06:41.498Z,10.55
2023-03-10T07:07:41.483Z,10.60
2023-03-10T07:08:41.461Z,10.54
2023-03-10T07:09:41.458Z,10.55
2023-03-10T07:10:41.454Z,10.57
2023-03-10T07:11:41.423Z,10.49
2023-03-10T07:12:41.404Z,10.55
2023-03-10T07:13:41.395Z,10.54
2023-03-10T07:14:41.396Z,10.47
2023-03-10T07:15:41.370Z,10.36
2023-03-10T07:16:41.476Z,10.46
2023-03-10T07:17:41.340Z,10.36
2023-03-10T07:18:41.326Z,10.34
2023-03-10T07:19:41.316Z,10.34
2023-03-10T07:20:41.304Z,10.39
2023-03-10T07:21:41.286Z,10.36
2023-03-10T07:22:41.272Z,10.29
2023-03-10T07:23:41.263Z,10.24
2023-03-10T07:25:41.237Z,10.28
2023-03-10T07:27:41.203Z,10.25
2023-03-10T07:28:41.192Z,10.38
2023-03-10T07:29:41.178Z,10.18
2023-03-10T07:30:41.496Z,10.31
2023-03-10T07:31:41.149Z,10.34
2023-03-10T07:32:41.317Z,10.14
2023-03-10T07:33:41.122Z,10.18
2023-03-10T07:34:41.105Z,10.11
2023-03-10T07:35:41.111Z,10.26
2023-03-10T07:36:41.077Z,10.31
2023-03-10T07:37:41.072Z,10.38
2023-03-10T07:38:41.065Z,10.42
2023-03-10T07:39:41.044Z,10.60
2023-03-10T07:40:41.036Z,10.65
2023-03-10T07:41:41.021Z,10.65
2023-03-10T07:43:40.985Z,10.70
2023-03-10T07:44:40.971Z,10.55
2023-03-10T07:46:41.024Z,10.87
2023-03-10T07:47:40.958Z,10.86
2023-03-10T07:48:40.914Z,10.94
2023-03-10T07:49:40.903Z,10.98
2023-03-10T07:50:40.887Z,11.02
2023-03-10T07:51:40.877Z,10.90
2023-03-10T07:52:40.867Z,10.98
2023-03-10T07:53:40.857Z,10.83
2023-03-10T07:54:40.835Z,10.93
2023-03-10T07:55:40.822Z,10.76
2023-03-10T07:56:40.806Z,10.62
2023-03-10T07:57:40.795Z,10.49
2023-03-10T07:58:40.888Z,10.46
2023-03-10T07:59:40.770Z,10.38
2023-03-10T08:00:40.749Z,10.31
2023-03-10T08:01:41.316Z,10.29
2023-03-10T08:02:40.985Z,10.44
2023-03-10T08:03:40.996Z,10.38
2023-03-10T08:04:40.962Z,10.36
2023-03-10T08:05:40.718Z,10.29
2023-03-10T08:06:41.513Z,10.39
2023-03-10T08:07:40.660Z,10.28
2023-03-10T08:08:40.803Z,10.18
2023-03-10T08:09:40.631Z,10.26
2023-03-10T08:10:40.616Z,10.24
2023-03-10T08:11:40.602Z,10.13
2023-03-10T08:12:40.588Z,10.34
2023-03-10T08:13:40.654Z,10.31
2023-03-10T08:14:40.561Z,10.28
2023-03-10T08:15:40.635Z,10.31
2023-03-10T08:16:40.546Z,10.36
2023-03-10T08:17:40.601Z,10.36
2023-03-10T08:18:40.563Z,10.49
2023-03-10T08:19:40.506Z,10.55
2023-03-10T08:20:40.747Z,10.49
2023-03-10T08:21:40.472Z,10.65
2023-03-10T08:22:40.456Z,10.72
2023-03-10T08:23:40.488Z,10.70
2023-03-10T08:24:40.453Z,10.72
2023-03-10T08:25:40.466Z,10.72
2023-03-10T08:26:40.401Z,10.70
2023-03-10T08:27:40.390Z,10.78
2023-03-10T08:28:40.979Z,10.78
2023-03-10T08:29:40.358Z,10.78
2023-03-10T08:30:53.236Z,10.87
2023-03-10T08:31:40.386Z,10.86
2023-03-10T08:32:40.361Z,10.98
2023-03-10T08:33:40.308Z,10.93
2023-03-10T08:34:40.307Z,11.01
2023-03-10T08:35:40.410Z,11.03
2023-03-10T08:36:40.286Z,11.20
2023-03-10T08:37:42.554Z,11.19
2023-03-10T08:38:40.254Z,11.27
2023-03-10T08:39:40.370Z,11.28
2023-03-10T08:40:40.214Z,11.35
2023-03-10T08:41:40.203Z,11.45
2023-03-10T08:42:40.189Z,11.45
2023-03-10T08:43:40.180Z,11.78
2023-03-10T08:44:40.165Z,11.84
2023-03-10T08:45:40.150Z,11.87
2023-03-10T08:46:40.189Z,12.03
2023-03-10T08:47:40.132Z,12.00
2023-03-10T08:48:42.658Z,12.05
2023-03-10T08:49:42.473Z,12.07
2023-03-10T08:50:40.111Z,12.12
2023-03-10T08:51:40.075Z,12.15
2023-03-10T08:52:40.060Z,12.12
2023-03-10T08:53:40.057Z,12.08
2023-03-10T08:54:40.036Z,12.13
2023-03-10T08:55:40.227Z,12.12
2023-03-10T08:56:40.016Z,12.16
2023-03-10T08:57:40.010Z,12.03
2023-03-10T08:58:39.985Z,12.01
2023-03-10T08:59:39.979Z,12.00
2023-03-10T09:00:39.964Z,12.00
2023-03-10T09:01:39.973Z,11.90
2023-03-10T09:02:39.983Z,11.90
2023-03-10T09:03:40.056Z,11.85
2023-03-10T09:04:39.921Z,11.88
2023-03-10T09:05:39.896Z,11.85
2023-03-10T09:06:39.905Z,11.81
2023-03-10T09:07:39.941Z,11.84
2023-03-10T09:08:39.858Z,11.88
2023-03-10T09:09:39.852Z,11.87
2023-03-10T09:10:39.835Z,11.98
2023-03-10T09:12:39.810Z,12.03
2023-03-10T09:13:39.798Z,11.97
2023-03-10T09:14:39.784Z,11.94
2023-03-10T09:15:39.775Z,11.88
2023-03-10T09:16:39.857Z,11.87
2023-03-10T09:17:40.867Z,11.87
2023-03-10T09:18:39.733Z,11.88
2023-03-10T09:19:39.722Z,11.87
2023-03-10T09:20:39.706Z,11.93
2023-03-10T09:21:39.696Z,11.79
2023-03-10T09:22:39.703Z,11.78
2023-03-10T09:23:39.670Z,11.81
2023-03-10T09:24:39.663Z,11.70
2023-03-10T09:25:39.644Z,11.79
2023-03-10T09:26:39.629Z,11.64
2023-03-10T09:27:39.619Z,11.69
2023-03-10T09:28:39.608Z,11.64
2023-03-10T09:29:43.428Z,11.64
2023-03-10T09:30:39.579Z,11.66
2023-03-10T09:31:39.739Z,11.63
2023-03-10T09:32:39.619Z,11.60
2023-03-10T09:33:39.545Z,11.54
2023-03-10T09:34:39.529Z,11.49
2023-03-10T09:35:41.793Z,11.44
2023-03-10T09:36:39.505Z,11.57
2023-03-10T09:37:39.496Z,11.45
2023-03-10T09:38:39.705Z,11.66
2023-03-10T09:39:39.495Z,11.42
2023-03-10T09:40:39.454Z,11.46
2023-03-10T09:41:39.446Z,11.54
2023-03-10T09:42:39.477Z,11.42
2023-03-10T09:43:39.482Z,11.53
2023-03-10T09:44:39.411Z,11.44
2023-03-10T09:45:39.520Z,11.46
2023-03-10T09:46:39.580Z,11.51
2023-03-10T09:47:39.369Z,11.51
2023-03-10T09:48:39.371Z,11.53
2023-03-10T09:49:39.355Z,11.59
2023-03-10T09:50:39.339Z,11.60
2023-03-10T09:51:39.318Z,11.64
2023-03-10T09:52:39.309Z,11.63
2023-03-10T09:53:39.306Z,11.69
2023-03-10T09:54:41.707Z,11.70
2023-03-10T09:55:47.071Z,11.62
2023-03-10T09:56:39.267Z,11.74
2023-03-10T09:57:39.244Z,11.72
2023-03-10T09:58:39.270Z,11.75
2023-03-10T09:59:39.223Z,11.67
2023-03-10T10:00:39.209Z,11.64
2023-03-10T10:01:39.192Z,11.63
2023-03-10T10:02:39.177Z,11.62
2023-03-10T10:03:52.084Z,11.60
2023-03-10T10:04:39.198Z,11.64
2023-03-10T10:05:39.141Z,11.59
2023-03-10T10:06:39.171Z,11.62
2023-03-10T10:07:39.118Z,11.64
2023-03-10T10:08:39.100Z,11.70
2023-03-10T10:09:39.087Z,11.84
2023-03-10T10:10:39.102Z,11.77
2023-03-10T10:11:39.064Z,11.84
2023-03-10T10:12:39.047Z,11.87
2023-03-10T10:13:41.764Z,12.04
2023-03-10T10:14:42.581Z,12.07
2023-03-10T10:15:39.014Z,12.04
2023-03-10T10:16:39.042Z,12.19
2023-03-10T10:17:47.337Z,12.19
2023-03-10T10:18:39.009Z,12.21
2023-03-10T10:19:38.960Z,12.18
2023-03-10T10:20:38.945Z,12.19
2023-03-10T10:21:42.653Z,12.22
2023-03-10T10:22:38.923Z,12.18
2023-03-10T10:23:38.920Z,12.23
2023-03-10T10:24:38.895Z,12.31
2023-03-10T10:25:40.209Z,12.40
2023-03-10T10:26:38.896Z,12.43
2023-03-10T10:27:38.865Z,12.52
2023-03-10T10:28:38.851Z,12.48
2023-03-10T10:29:38.851Z,12.54
2023-03-10T10:30:39.098Z,12.52
2023-03-10T10:31:38.811Z,12.55
2023-03-10T10:32:38.820Z,12.52
2023-03-10T10:33:38.790Z,12.66
2023-03-10T10:34:38.774Z,12.56
2023-03-10T10:35:38.774Z,12.58
2023-03-10T10:36:38.745Z,12.58
2023-03-10T10:37:41.381Z,12.61
2023-03-10T10:38:38.723Z,12.69
2023-03-10T10:39:38.712Z,12.66
2023-03-10T10:40:38.705Z,12.76
2023-03-10T10:41:38.696Z,12.69
2023-03-10T10:42:38.701Z,12.59
2023-03-10T10:43:38.665Z,12.59
2023-03-10T10:44:38.649Z,12.62
2023-03-10T10:45:38.643Z,12.59
2023-03-10T10:46:38.627Z,12.54
2023-03-10T10:47:38.618Z,12.54
2023-03-10T10:48:38.603Z,12.52
2023-03-10T10:49:38.596Z,12.54
2023-03-10T10:50:38.591Z,12.61
2023-03-10T10:51:38.573Z,12.59
2023-03-10T10:52:38.561Z,12.54
2023-03-10T10:53:38.546Z,12.54
2023-03-10T10:54:38.534Z,12.52
2023-03-10T10:55:38.519Z,12.51
2023-03-10T10:56:38.506Z,12.58
2023-03-10T10:57:38.501Z,12.54
2023-03-10T10:58:38.518Z,12.59
2023-03-10T10:59:38.476Z,12.61
2023-03-10T11:00:38.552Z,12.58
2023-03-10T11:01:38.552Z,12.58
2023-03-10T11:02:38.500Z,12.58
2023-03-10T11:03:38.427Z,12.55
2023-03-10T11:04:38.407Z,12.40
2023-03-10T11:05:38.397Z,12.40
2023-03-10T11:06:38.378Z,12.36
2023-03-10T11:07:38.371Z,12.22
2023-03-10T11:08:38.356Z,12.07
2023-03-10T11:09:38.348Z,12.13
2023-03-10T11:10:38.349Z,12.07
2023-03-10T11:11:38.322Z,11.97
2023-03-10T11:12:38.305Z,12.05
2023-03-10T11:13:38.297Z,11.96
2023-03-10T11:14:38.307Z,12.00
2023-03-10T11:15:38.345Z,12.03
2023-03-10T11:16:38.254Z,12.03
2023-03-10T11:17:38.264Z,11.98
2023-03-10T11:18:38.240Z,11.87
2023-03-10T11:19:38.222Z,11.96
2023-03-10T11:20:38.206Z,11.90
2023-03-10T11:21:38.204Z,11.79
2023-03-10T11:22:38.186Z,11.81
2023-03-10T11:23:38.172Z,11.79
2023-03-10T11:24:38.163Z,11.81
2023-03-10T11:25:38.149Z,11.72
2023-03-10T11:26:38.131Z,11.72
2023-03-10T11:27:38.125Z,11.69
2023-03-10T11:28:38.113Z,11.74
2023-03-10T11:29:38.199Z,11.78
2023-03-10T11:30:38.130Z,11.85
2023-03-10T11:31:38.073Z,11.84
2023-03-10T11:32:38.130Z,11.88
2023-03-10T11:33:38.046Z,11.88
2023-03-10T11:34:38.030Z,11.93
2023-03-10T11:35:38.094Z,11.88
2023-03-10T11:36:49.535Z,11.88
2023-03-10T11:37:37.994Z,11.82
2023-03-10T11:38:37.994Z,11.93
2023-03-10T11:39:37.972Z,11.96
2023-03-10T11:40:37.959Z,11.90
2023-03-10T11:41:37.946Z,11.87
2023-03-10T11:42:37.932Z,11.87
2023-03-10T11:43:37.922Z,11.85
2023-03-10T11:44:37.903Z,11.96
2023-03-10T11:45:37.892Z,11.97
2023-03-10T11:46:37.952Z,12.04
2023-03-10T11:47:40.741Z,12.04
2023-03-10T11:48:37.855Z,12.04
2023-03-10T11:49:37.844Z,12.11
2023-03-10T11:50:37.825Z,12.12
2023-03-10T11:51:37.817Z,12.12
2023-03-10T11:52:37.801Z,12.11
2023-03-10T11:53:37.788Z,12.16
2023-03-10T11:54:37.774Z,12.05
2023-03-10T11:55:37.766Z,12.03
2023-03-10T11:56:37.749Z,12.00
2023-03-10T11:57:37.740Z,12.03
2023-03-10T11:58:37.720Z,11.94
2023-03-10T11:59:37.711Z,11.97
2023-03-10T12:00:37.697Z,11.87
2023-03-10T12:01:37.686Z,11.79
2023-03-10T12:02:37.707Z,11.64
2023-03-10T12:03:37.748Z,11.63
2023-03-10T12:04:37.646Z,11.63
2023-03-10T12:05:37.786Z,11.70
2023-03-10T12:06:37.622Z,11.81
2023-03-10T12:07:37.610Z,11.74
2023-03-10T12:08:37.591Z,11.74
2023-03-10T12:09:37.581Z,11.72
2023-03-10T12:10:37.564Z,11.64
2023-03-10T12:11:37.556Z,11.67
2023-03-10T12:12:37.549Z,11.74
2023-03-10T12:13:37.531Z,11.74
2023-03-10T12:14:37.514Z,11.69
2023-03-10T12:15:37.504Z,11.67
2023-03-10T12:16:37.617Z,11.66
2023-03-10T12:17:37.477Z,11.62
2023-03-10T12:18:37.480Z,11.64
2023-03-10T12:19:37.450Z,11.77
2023-03-10T12:20:37.439Z,11.69
2023-03-10T12:21:37.423Z,11.69
2023-03-10T12:22:37.419Z,11.72
2023-03-10T12:23:37.398Z,11.85
2023-03-10T12:24:37.382Z,11.78
2023-03-10T12:25:37.372Z,11.70
2023-03-10T12:26:37.368Z,11.72
2023-03-10T12:27:37.346Z,11.88
2023-03-10T12:28:37.530Z,11.72
2023-03-10T12:30:37.305Z,11.81
2023-03-10T12:31:37.349Z,11.75
2023-03-10T12:32:37.377Z,11.81
2023-03-10T12:33:37.261Z,11.78
2023-03-10T12:34:37.276Z,11.64
2023-03-10T12:35:37.270Z,11.72
2023-03-10T12:36:37.225Z,11.64
2023-03-10T12:37:37.210Z,11.54
2023-03-10T12:38:37.198Z,11.63
2023-03-10T12:39:37.190Z,11.63
2023-03-10T12:40:37.175Z,11.72
2023-03-10T12:41:37.176Z,11.74
2023-03-10T12:42:37.150Z,11.81
2023-03-10T12:43:37.132Z,11.84
2023-03-10T12:44:37.130Z,11.82
2023-03-10T12:45:37.104Z,11.74
2023-03-10T12:46:37.122Z,11.75
2023-03-10T12:47:37.078Z,11.79
2023-03-10T12:48:37.069Z,11.72
2023-03-10T12:49:37.053Z,11.81
2023-03-10T12:50:37.094Z,11.88
2023-03-10T12:51:37.027Z,11.72
2023-03-10T12:53:37.003Z,11.79
2023-03-10T12:54:36.986Z,11.69
2023-03-10T12:55:36.982Z,11.85
2023-03-10T12:56:36.968Z,11.84
2023-03-10T12:57:36.956Z,11.87
2023-03-10T12:58:36.945Z,11.90
2023-03-10T12:59:36.931Z,11.90
2023-03-10T13:00:36.982Z,11.84
2023-03-10T13:01:40.590Z,11.81
2023-03-10T13:02:36.892Z,11.87
2023-03-10T13:03:36.883Z,11.84
2023-03-10T13:04:36.862Z,11.81
2023-03-10T13:05:36.853Z,11.88